sensor_id;sensor_type;location;lat;lon;timestamp;P1;durP1;ratioP1;P2;durP2;ratioP2
4268;SDS011;2148;48.554;7.834;2023-04-25T00:00:23;3.57;;;3.27;;
4268;SDS011;2148;48.554;7.834;2023-04-25T00:02:48;4.27;;;3.33;;
4268;SDS011;2148;48.554;7.834;2023-04-25T00:05:14;4.73;;;3.43;;
4268;SDS011;2148;48.554;7.834;2023-04-25T00:07:42;4.67;;;3.30;;
4268;SDS011;2148;48.554;7.834;2023-04-25T00:10:08;3.53;;;3.10;;
4268;SDS011;2148;48.554;7.834;2023-04-25T00:12:34;3.67;;;3.23;;
4268;SDS011;2148;48.554;7.834;2023-04-25T00:15:00;3.63;;;3.00;;
4268;SDS011;2148;48.554;7.834;2023-04-25T00:17:26;3.77;;;3.37;;
4268;SDS011;2148;48.554;7.834;2023-04-25T00:19:51;4.73;;;3.47;;
4268;SDS011;2148;48.554;7.834;2023-04-25T00:22:17;3.50;;;3.20;;
4268;SDS011;2148;48.554;7.834;2023-04-25T00:24:43;3.60;;;3.30;;
4268;SDS011;2148;48.554;7.834;2023-04-25T00:27:08;3.83;;;3.43;;
4268;SDS011;2148;48.554;7.834;2023-04-25T00:29:33;4.03;;;3.30;;
4268;SDS011;2148;48.554;7.834;2023-04-25T00:31:59;3.80;;;3.50;;
4268;SDS011;2148;48.554;7.834;2023-04-25T00:34:25;5.33;;;3.40;;
4268;SDS011;2148;48.554;7.834;2023-04-25T00:36:50;5.03;;;4.00;;
4268;SDS011;2148;48.554;7.834;2023-04-25T00:39:15;3.90;;;3.50;;
4268;SDS011;2148;48.554;7.834;2023-04-25T00:41:41;6.37;;;3.33;;
4268;SDS011;2148;48.554;7.834;2023-04-25T00:44:08;4.40;;;3.37;;
4268;SDS011;2148;48.554;7.834;2023-04-25T00:46:35;4.40;;;3.70;;
4268;SDS011;2148;48.554;7.834;2023-04-25T00:49:00;5.20;;;3.67;;
4268;SDS011;2148;48.554;7.834;2023-04-25T00:51:25;3.70;;;3.33;;
4268;SDS011;2148;48.554;7.834;2023-04-25T00:53:51;4.67;;;3.67;;
4268;SDS011;2148;48.554;7.834;2023-04-25T00:56:17;4.17;;;3.17;;
4268;SDS011;2148;48.554;7.834;2023-04-25T00:58:42;5.53;;;3.20;;
4268;SDS011;2148;48.554;7.834;2023-04-25T01:01:08;4.53;;;3.40;;
4268;SDS011;2148;48.554;7.834;2023-04-25T01:03:34;7.17;;;3.43;;
4268;SDS011;2148;48.554;7.834;2023-04-25T01:06:05;4.77;;;3.57;;
4268;SDS011;2148;48.554;7.834;2023-04-25T01:08:32;4.60;;;3.27;;
4268;SDS011;2148;48.554;7.834;2023-04-25T01:10:57;4.00;;;3.60;;
4268;SDS011;2148;48.554;7.834;2023-04-25T01:13:23;3.40;;;3.10;;
4268;SDS011;2148;48.554;7.834;2023-04-25T01:15:48;4.07;;;3.47;;
4268;SDS011;2148;48.554;7.834;2023-04-25T01:18:13;4.00;;;2.80;;
4268;SDS011;2148;48.554;7.834;2023-04-25T01:20:39;5.07;;;3.30;;
4268;SDS011;2148;48.554;7.834;2023-04-25T01:23:05;3.97;;;3.57;;
4268;SDS011;2148;48.554;7.834;2023-04-25T01:25:30;3.80;;;3.17;;
4268;SDS011;2148;48.554;7.834;2023-04-25T01:27:56;3.13;;;2.83;;
4268;SDS011;2148;48.554;7.834;2023-04-25T01:30:22;4.47;;;2.90;;
4268;SDS011;2148;48.554;7.834;2023-04-25T01:32:48;3.20;;;2.90;;
4268;SDS011;2148;48.554;7.834;2023-04-25T01:35:14;4.17;;;2.90;;
4268;SDS011;2148;48.554;7.834;2023-04-25T01:37:40;3.17;;;2.87;;
4268;SDS011;2148;48.554;7.834;2023-04-25T01:40:07;4.03;;;2.90;;
4268;SDS011;2148;48.554;7.834;2023-04-25T01:42:33;4.80;;;2.67;;
4268;SDS011;2148;48.554;7.834;2023-04-25T01:44:59;3.53;;;3.10;;
4268;SDS011;2148;48.554;7.834;2023-04-25T01:47:25;3.37;;;2.97;;
4268;SDS011;2148;48.554;7.834;2023-04-25T01:49:50;3.93;;;3.27;;
4268;SDS011;2148;48.554;7.834;2023-04-25T01:52:15;3.23;;;2.70;;
4268;SDS011;2148;48.554;7.834;2023-04-25T01:54:41;4.77;;;3.17;;
4268;SDS011;2148;48.554;7.834;2023-04-25T01:57:09;3.10;;;2.80;;
4268;SDS011;2148;48.554;7.834;2023-04-25T01:59:34;5.23;;;3.30;;
4268;SDS011;2148;48.554;7.834;2023-04-25T02:02:00;3.50;;;3.20;;
4268;SDS011;2148;48.554;7.834;2023-04-25T02:04:28;3.93;;;3.20;;
4268;SDS011;2148;48.554;7.834;2023-04-25T02:06:54;3.40;;;3.10;;
4268;SDS011;2148;48.554;7.834;2023-04-25T02:09:19;3.93;;;3.13;;
4268;SDS011;2148;48.554;7.834;2023-04-25T02:11:45;4.30;;;3.07;;
4268;SDS011;2148;48.554;7.834;2023-04-25T02:14:10;4.53;;;3.27;;
4268;SDS011;2148;48.554;7.834;2023-04-25T02:16:35;3.47;;;3.13;;
4268;SDS011;2148;48.554;7.834;2023-04-25T02:19:00;5.17;;;3.27;;
4268;SDS011;2148;48.554;7.834;2023-04-25T02:21:26;4.30;;;3.50;;
4268;SDS011;2148;48.554;7.834;2023-04-25T02:23:51;5.00;;;3.47;;
4268;SDS011;2148;48.554;7.834;2023-04-25T02:26:16;4.97;;;3.50;;
4268;SDS011;2148;48.554;7.834;2023-04-25T02:28:42;3.90;;;3.50;;
4268;SDS011;2148;48.554;7.834;2023-04-25T02:31:07;5.37;;;3.40;;
4268;SDS011;2148;48.554;7.834;2023-04-25T02:33:32;3.93;;;3.53;;
4268;SDS011;2148;48.554;7.834;2023-04-25T02:35:58;6.20;;;3.70;;
4268;SDS011;2148;48.554;7.834;2023-04-25T02:38:23;3.77;;;3.47;;
4268;SDS011;2148;48.554;7.834;2023-04-25T02:40:48;4.77;;;3.70;;
4268;SDS011;2148;48.554;7.834;2023-04-25T02:43:13;3.90;;;3.47;;
4268;SDS011;2148;48.554;7.834;2023-04-25T02:45:39;4.00;;;3.60;;
4268;SDS011;2148;48.554;7.834;2023-04-25T02:48:04;4.37;;;3.97;;
4268;SDS011;2148;48.554;7.834;2023-04-25T02:50:29;4.67;;;3.70;;
4268;SDS011;2148;48.554;7.834;2023-04-25T02:52:55;3.77;;;3.40;;
4268;SDS011;2148;48.554;7.834;2023-04-25T02:55:20;4.23;;;3.80;;
4268;SDS011;2148;48.554;7.834;2023-04-25T02:57:45;3.83;;;3.53;;
4268;SDS011;2148;48.554;7.834;2023-04-25T03:00:11;4.00;;;3.60;;
4268;SDS011;2148;48.554;7.834;2023-04-25T03:02:39;3.67;;;3.37;;
4268;SDS011;2148;48.554;7.834;2023-04-25T03:05:04;4.20;;;3.70;;
4268;SDS011;2148;48.554;7.834;2023-04-25T03:07:29;4.80;;;3.87;;
4268;SDS011;2148;48.554;7.834;2023-04-25T03:09:55;4.03;;;3.63;;
4268;SDS011;2148;48.554;7.834;2023-04-25T03:12:21;4.67;;;4.27;;
4268;SDS011;2148;48.554;7.834;2023-04-25T03:14:46;4.80;;;4.00;;
4268;SDS011;2148;48.554;7.834;2023-04-25T03:17:12;4.93;;;4.50;;
4268;SDS011;2148;48.554;7.834;2023-04-25T03:19:37;4.20;;;3.90;;
4268;SDS011;2148;48.554;7.834;2023-04-25T03:22:02;4.73;;;4.23;;
4268;SDS011;2148;48.554;7.834;2023-04-25T03:24:27;5.20;;;3.97;;
4268;SDS011;2148;48.554;7.834;2023-04-25T03:26:53;5.30;;;4.13;;
4268;SDS011;2148;48.554;7.834;2023-04-25T03:29:18;5.00;;;4.50;;
4268;SDS011;2148;48.554;7.834;2023-04-25T03:31:43;5.20;;;4.27;;
4268;SDS011;2148;48.554;7.834;2023-04-25T03:34:09;4.90;;;4.07;;
4268;SDS011;2148;48.554;7.834;2023-04-25T03:36:34;5.17;;;4.13;;
4268;SDS011;2148;48.554;7.834;2023-04-25T03:39:00;4.83;;;4.40;;
4268;SDS011;2148;48.554;7.834;2023-04-25T03:41:25;4.53;;;4.20;;
4268;SDS011;2148;48.554;7.834;2023-04-25T03:43:50;4.83;;;4.43;;
4268;SDS011;2148;48.554;7.834;2023-04-25T03:46:16;4.90;;;4.50;;
4268;SDS011;2148;48.554;7.834;2023-04-25T03:48:41;5.03;;;4.53;;
4268;SDS011;2148;48.554;7.834;2023-04-25T03:51:06;5.23;;;4.53;;
4268;SDS011;2148;48.554;7.834;2023-04-25T03:53:31;5.77;;;4.87;;
4268;SDS011;2148;48.554;7.834;2023-04-25T03:55:57;5.47;;;4.30;;
4268;SDS011;2148;48.554;7.834;2023-04-25T03:58:22;4.77;;;3.70;;
4268;SDS011;2148;48.554;7.834;2023-04-25T04:00:49;4.20;;;3.80;;
4268;SDS011;2148;48.554;7.834;2023-04-25T04:03:14;4.70;;;4.00;;
4268;SDS011;2148;48.554;7.834;2023-04-25T04:05:39;4.50;;;3.97;;
4268;SDS011;2148;48.554;7.834;2023-04-25T04:08:05;8.10;;;4.20;;
4268;SDS011;2148;48.554;7.834;2023-04-25T04:10:31;4.27;;;3.83;;
4268;SDS011;2148;48.554;7.834;2023-04-25T04:12:56;4.30;;;4.00;;
4268;SDS011;2148;48.554;7.834;2023-04-25T04:15:21;4.90;;;4.40;;
4268;SDS011;2148;48.554;7.834;2023-04-25T04:17:47;4.83;;;4.43;;
4268;SDS011;2148;48.554;7.834;2023-04-25T04:20:13;5.23;;;4.50;;
4268;SDS011;2148;48.554;7.834;2023-04-25T04:22:38;4.73;;;4.30;;
4268;SDS011;2148;48.554;7.834;2023-04-25T04:25:04;6.33;;;4.40;;
4268;SDS011;2148;48.554;7.834;2023-04-25T04:27:30;4.73;;;4.33;;
4268;SDS011;2148;48.554;7.834;2023-04-25T04:29:56;6.00;;;4.10;;
4268;SDS011;2148;48.554;7.834;2023-04-25T04:32:22;6.37;;;4.77;;
4268;SDS011;2148;48.554;7.834;2023-04-25T04:34:48;4.83;;;4.43;;
4268;SDS011;2148;48.554;7.834;2023-04-25T04:37:13;6.50;;;4.60;;
4268;SDS011;2148;48.554;7.834;2023-04-25T04:39:39;5.10;;;4.27;;
4268;SDS011;2148;48.554;7.834;2023-04-25T04:42:05;4.43;;;4.03;;
4268;SDS011;2148;48.554;7.834;2023-04-25T04:44:30;5.77;;;4.03;;
4268;SDS011;2148;48.554;7.834;2023-04-25T04:46:59;5.20;;;3.90;;
4268;SDS011;2148;48.554;7.834;2023-04-25T04:49:24;4.87;;;3.70;;
4268;SDS011;2148;48.554;7.834;2023-04-25T04:51:50;4.93;;;4.13;;
4268;SDS011;2148;48.554;7.834;2023-04-25T04:54:15;4.60;;;4.20;;
4268;SDS011;2148;48.554;7.834;2023-04-25T04:56:40;6.07;;;4.33;;
4268;SDS011;2148;48.554;7.834;2023-04-25T04:59:06;4.63;;;4.23;;
4268;SDS011;2148;48.554;7.834;2023-04-25T05:01:32;4.83;;;4.10;;
4268;SDS011;2148;48.554;7.834;2023-04-25T05:03:57;5.23;;;4.17;;
4268;SDS011;2148;48.554;7.834;2023-04-25T05:06:25;4.70;;;4.20;;
4268;SDS011;2148;48.554;7.834;2023-04-25T05:08:51;6.73;;;4.13;;
4268;SDS011;2148;48.554;7.834;2023-04-25T05:11:17;4.47;;;3.67;;
4268;SDS011;2148;48.554;7.834;2023-04-25T05:13:42;5.00;;;4.30;;
4268;SDS011;2148;48.554;7.834;2023-04-25T05:16:08;5.10;;;3.63;;
4268;SDS011;2148;48.554;7.834;2023-04-25T05:18:33;6.33;;;3.87;;
4268;SDS011;2148;48.554;7.834;2023-04-25T05:20:58;4.97;;;4.00;;
4268;SDS011;2148;48.554;7.834;2023-04-25T05:23:23;5.10;;;4.50;;
4268;SDS011;2148;48.554;7.834;2023-04-25T05:25:49;5.30;;;4.20;;
4268;SDS011;2148;48.554;7.834;2023-04-25T05:28:14;5.60;;;4.50;;
4268;SDS011;2148;48.554;7.834;2023-04-25T05:30:39;5.90;;;4.60;;
4268;SDS011;2148;48.554;7.834;2023-04-25T05:33:05;7.10;;;4.30;;
4268;SDS011;2148;48.554;7.834;2023-04-25T05:35:30;4.87;;;4.30;;
4268;SDS011;2148;48.554;7.834;2023-04-25T05:37:55;7.00;;;4.67;;
4268;SDS011;2148;48.554;7.834;2023-04-25T05:40:21;5.20;;;4.70;;
4268;SDS011;2148;48.554;7.834;2023-04-25T05:42:46;7.03;;;4.37;;
4268;SDS011;2148;48.554;7.834;2023-04-25T05:45:11;5.73;;;4.63;;
4268;SDS011;2148;48.554;7.834;2023-04-25T05:47:36;6.03;;;4.43;;
4268;SDS011;2148;48.554;7.834;2023-04-25T05:50:02;5.03;;;4.43;;
4268;SDS011;2148;48.554;7.834;2023-04-25T05:52:27;4.67;;;4.27;;
4268;SDS011;2148;48.554;7.834;2023-04-25T05:54:52;5.20;;;4.67;;
4268;SDS011;2148;48.554;7.834;2023-04-25T05:57:19;6.43;;;4.60;;
4268;SDS011;2148;48.554;7.834;2023-04-25T05:59:48;4.10;;;3.80;;
4268;SDS011;2148;48.554;7.834;2023-04-25T06:02:13;4.60;;;4.20;;
4268;SDS011;2148;48.554;7.834;2023-04-25T06:04:38;5.00;;;4.23;;
4268;SDS011;2148;48.554;7.834;2023-04-25T06:07:03;4.60;;;4.17;;
4268;SDS011;2148;48.554;7.834;2023-04-25T06:09:29;6.77;;;4.67;;
4268;SDS011;2148;48.554;7.834;2023-04-25T06:11:54;4.90;;;4.40;;
4268;SDS011;2148;48.554;7.834;2023-04-25T06:14:19;4.90;;;4.47;;
4268;SDS011;2148;48.554;7.834;2023-04-25T06:16:44;6.10;;;4.80;;
4268;SDS011;2148;48.554;7.834;2023-04-25T06:19:10;5.70;;;5.10;;
4268;SDS011;2148;48.554;7.834;2023-04-25T06:21:35;5.90;;;5.07;;
4268;SDS011;2148;48.554;7.834;2023-04-25T06:24:00;5.73;;;4.53;;
4268;SDS011;2148;48.554;7.834;2023-04-25T06:26:25;5.13;;;4.70;;
4268;SDS011;2148;48.554;7.834;2023-04-25T06:28:51;6.20;;;3.80;;
4268;SDS011;2148;48.554;7.834;2023-04-25T06:31:16;4.17;;;3.50;;
4268;SDS011;2148;48.554;7.834;2023-04-25T06:33:41;4.47;;;3.70;;
4268;SDS011;2148;48.554;7.834;2023-04-25T06:36:06;4.47;;;3.57;;
4268;SDS011;2148;48.554;7.834;2023-04-25T06:38:32;3.70;;;3.23;;
4268;SDS011;2148;48.554;7.834;2023-04-25T06:40:57;4.10;;;3.10;;
4268;SDS011;2148;48.554;7.834;2023-04-25T06:43:22;4.03;;;3.20;;
4268;SDS011;2148;48.554;7.834;2023-04-25T06:45:47;4.30;;;3.30;;
4268;SDS011;2148;48.554;7.834;2023-04-25T06:48:13;4.83;;;3.83;;
4268;SDS011;2148;48.554;7.834;2023-04-25T06:50:38;3.33;;;2.63;;
4268;SDS011;2148;48.554;7.834;2023-04-25T06:53:03;2.73;;;2.37;;
4268;SDS011;2148;48.554;7.834;2023-04-25T06:55:28;2.63;;;2.43;;
4268;SDS011;2148;48.554;7.834;2023-04-25T06:57:54;2.40;;;2.27;;
4268;SDS011;2148;48.554;7.834;2023-04-25T07:00:19;2.03;;;1.93;;
4268;SDS011;2148;48.554;7.834;2023-04-25T07:02:45;2.17;;;2.07;;
4268;SDS011;2148;48.554;7.834;2023-04-25T07:05:11;2.33;;;2.13;;
4268;SDS011;2148;48.554;7.834;2023-04-25T07:07:36;2.57;;;2.37;;
4268;SDS011;2148;48.554;7.834;2023-04-25T07:10:01;2.00;;;1.80;;
4268;SDS011;2148;48.554;7.834;2023-04-25T07:12:27;2.60;;;2.10;;
4268;SDS011;2148;48.554;7.834;2023-04-25T07:14:52;2.40;;;2.20;;
4268;SDS011;2148;48.554;7.834;2023-04-25T07:17:18;2.00;;;1.90;;
4268;SDS011;2148;48.554;7.834;2023-04-25T07:19:43;2.57;;;2.10;;
4268;SDS011;2148;48.554;7.834;2023-04-25T07:22:08;2.50;;;2.23;;
4268;SDS011;2148;48.554;7.834;2023-04-25T07:24:33;2.30;;;2.10;;
4268;SDS011;2148;48.554;7.834;2023-04-25T07:26:59;2.53;;;1.80;;
4268;SDS011;2148;48.554;7.834;2023-04-25T07:29:24;2.60;;;2.30;;
4268;SDS011;2148;48.554;7.834;2023-04-25T07:31:49;2.43;;;1.90;;
4268;SDS011;2148;48.554;7.834;2023-04-25T07:34:14;2.50;;;2.30;;
4268;SDS011;2148;48.554;7.834;2023-04-25T07:36:40;2.70;;;2.40;;
4268;SDS011;2148;48.554;7.834;2023-04-25T07:39:05;2.37;;;2.17;;
4268;SDS011;2148;48.554;7.834;2023-04-25T07:41:32;2.20;;;2.10;;
4268;SDS011;2148;48.554;7.834;2023-04-25T07:43:57;2.50;;;2.30;;
4268;SDS011;2148;48.554;7.834;2023-04-25T07:46:22;3.03;;;2.20;;
4268;SDS011;2148;48.554;7.834;2023-04-25T07:48:48;2.00;;;1.90;;
4268;SDS011;2148;48.554;7.834;2023-04-25T07:51:13;3.83;;;1.80;;
4268;SDS011;2148;48.554;7.834;2023-04-25T07:53:38;2.03;;;1.90;;
4268;SDS011;2148;48.554;7.834;2023-04-25T07:56:04;3.00;;;1.90;;
4268;SDS011;2148;48.554;7.834;2023-04-25T07:58:29;2.30;;;2.10;;
4268;SDS011;2148;48.554;7.834;2023-04-25T08:00:55;2.40;;;2.17;;
4268;SDS011;2148;48.554;7.834;2023-04-25T08:03:20;2.50;;;2.07;;
4268;SDS011;2148;48.554;7.834;2023-04-25T08:05:46;2.10;;;2.00;;
4268;SDS011;2148;48.554;7.834;2023-04-25T08:08:11;2.53;;;2.33;;
4268;SDS011;2148;48.554;7.834;2023-04-25T08:10:36;2.17;;;1.80;;
4268;SDS011;2148;48.554;7.834;2023-04-25T08:13:02;2.43;;;2.23;;
4268;SDS011;2148;48.554;7.834;2023-04-25T08:15:27;2.37;;;2.00;;
4268;SDS011;2148;48.554;7.834;2023-04-25T08:17:52;2.40;;;2.20;;
4268;SDS011;2148;48.554;7.834;2023-04-25T08:20:18;1.80;;;1.70;;
4268;SDS011;2148;48.554;7.834;2023-04-25T08:22:43;2.20;;;2.00;;
4268;SDS011;2148;48.554;7.834;2023-04-25T08:25:08;2.43;;;2.10;;
4268;SDS011;2148;48.554;7.834;2023-04-25T08:27:34;2.37;;;2.17;;
4268;SDS011;2148;48.554;7.834;2023-04-25T08:29:59;2.00;;;1.90;;
4268;SDS011;2148;48.554;7.834;2023-04-25T08:32:25;2.80;;;2.20;;
4268;SDS011;2148;48.554;7.834;2023-04-25T08:34:50;2.20;;;2.00;;
4268;SDS011;2148;48.554;7.834;2023-04-25T08:37:18;2.37;;;2.17;;
4268;SDS011;2148;48.554;7.834;2023-04-25T08:39:44;3.43;;;2.10;;
4268;SDS011;2148;48.554;7.834;2023-04-25T08:42:10;3.50;;;3.00;;
4268;SDS011;2148;48.554;7.834;2023-04-25T08:44:36;3.33;;;2.60;;
4268;SDS011;2148;48.554;7.834;2023-04-25T08:47:03;2.53;;;2.10;;
4268;SDS011;2148;48.554;7.834;2023-04-25T08:49:29;2.37;;;2.17;;
4268;SDS011;2148;48.554;7.834;2023-04-25T08:52:01;3.27;;;2.10;;
4268;SDS011;2148;48.554;7.834;2023-04-25T08:54:31;2.20;;;2.00;;
4268;SDS011;2148;48.554;7.834;2023-04-25T08:56:57;2.10;;;1.90;;
4268;SDS011;2148;48.554;7.834;2023-04-25T08:59:23;1.77;;;1.67;;
4268;SDS011;2148;48.554;7.834;2023-04-25T09:01:49;2.30;;;2.10;;
4268;SDS011;2148;48.554;7.834;2023-04-25T09:04:15;2.20;;;2.07;;
4268;SDS011;2148;48.554;7.834;2023-04-25T09:06:40;2.00;;;1.90;;
4268;SDS011;2148;48.554;7.834;2023-04-25T09:09:06;3.00;;;2.20;;
4268;SDS011;2148;48.554;7.834;2023-04-25T09:11:33;2.10;;;2.00;;
4268;SDS011;2148;48.554;7.834;2023-04-25T09:19:21;2.30;;;2.10;;
4268;SDS011;2148;48.554;7.834;2023-04-25T09:21:50;2.53;;;2.00;;
4268;SDS011;2148;48.554;7.834;2023-04-25T09:26:57;3.03;;;2.60;;
4268;SDS011;2148;48.554;7.834;2023-04-25T09:29:28;5.23;;;3.50;;
4268;SDS011;2148;48.554;7.834;2023-04-25T09:32:10;4.77;;;4.27;;
4268;SDS011;2148;48.554;7.834;2023-04-25T09:34:48;3.40;;;3.10;;
4268;SDS011;2148;48.554;7.834;2023-04-25T09:37:19;2.90;;;2.60;;
4268;SDS011;2148;48.554;7.834;2023-04-25T09:39:46;2.43;;;2.23;;
4268;SDS011;2148;48.554;7.834;2023-04-25T09:42:12;2.40;;;2.20;;
4268;SDS011;2148;48.554;7.834;2023-04-25T09:44:41;2.00;;;1.90;;
4268;SDS011;2148;48.554;7.834;2023-04-25T09:47:17;2.20;;;2.00;;
4268;SDS011;2148;48.554;7.834;2023-04-25T09:49:43;2.87;;;2.20;;
4268;SDS011;2148;48.554;7.834;2023-04-25T09:52:09;2.57;;;2.20;;
4268;SDS011;2148;48.554;7.834;2023-04-25T09:54:39;2.53;;;1.90;;
4268;SDS011;2148;48.554;7.834;2023-04-25T09:57:14;2.03;;;1.93;;
4268;SDS011;2148;48.554;7.834;2023-04-25T09:59:43;1.90;;;1.80;;
4268;SDS011;2148;48.554;7.834;2023-04-25T10:02:09;2.00;;;1.90;;
4268;SDS011;2148;48.554;7.834;2023-04-25T10:04:35;1.90;;;1.80;;
4268;SDS011;2148;48.554;7.834;2023-04-25T10:07:03;2.43;;;2.20;;
4268;SDS011;2148;48.554;7.834;2023-04-25T10:09:32;2.30;;;2.10;;
4268;SDS011;2148;48.554;7.834;2023-04-25T10:12:01;2.17;;;1.97;;
4268;SDS011;2148;48.554;7.834;2023-04-25T10:14:29;2.00;;;1.90;;
4268;SDS011;2148;48.554;7.834;2023-04-25T10:16:55;2.00;;;1.90;;
4268;SDS011;2148;48.554;7.834;2023-04-25T10:19:21;2.00;;;1.90;;
4268;SDS011;2148;48.554;7.834;2023-04-25T10:21:48;3.00;;;1.93;;
4268;SDS011;2148;48.554;7.834;2023-04-25T10:24:15;2.20;;;2.00;;
4268;SDS011;2148;48.554;7.834;2023-04-25T10:26:41;2.27;;;2.00;;
4268;SDS011;2148;48.554;7.834;2023-04-25T10:29:06;3.43;;;2.07;;
4268;SDS011;2148;48.554;7.834;2023-04-25T10:31:32;2.30;;;2.10;;
4268;SDS011;2148;48.554;7.834;2023-04-25T10:33:57;1.83;;;1.73;;
4268;SDS011;2148;48.554;7.834;2023-04-25T10:36:23;1.80;;;1.70;;
4268;SDS011;2148;48.554;7.834;2023-04-25T10:38:50;1.97;;;1.87;;
4268;SDS011;2148;48.554;7.834;2023-04-25T10:41:19;2.17;;;1.97;;
4268;SDS011;2148;48.554;7.834;2023-04-25T10:43:46;1.90;;;1.80;;
4268;SDS011;2148;48.554;7.834;2023-04-25T10:46:13;1.80;;;1.70;;
4268;SDS011;2148;48.554;7.834;2023-04-25T10:48:53;3.30;;;2.00;;
4268;SDS011;2148;48.554;7.834;2023-04-25T10:56:21;2.07;;;1.97;;
4268;SDS011;2148;48.554;7.834;2023-04-25T10:59:04;2.30;;;2.10;;
4268;SDS011;2148;48.554;7.834;2023-04-25T11:01:35;2.33;;;2.10;;
4268;SDS011;2148;48.554;7.834;2023-04-25T11:04:04;2.57;;;2.37;;
4268;SDS011;2148;48.554;7.834;2023-04-25T11:09:27;2.00;;;1.90;;
4268;SDS011;2148;48.554;7.834;2023-04-25T11:11:57;2.43;;;2.13;;
4268;SDS011;2148;48.554;7.834;2023-04-25T11:14:23;2.33;;;2.10;;
4268;SDS011;2148;48.554;7.834;2023-04-25T11:16:55;2.50;;;2.30;;
4268;SDS011;2148;48.554;7.834;2023-04-25T11:19:21;2.50;;;2.30;;
4268;SDS011;2148;48.554;7.834;2023-04-25T11:21:47;2.63;;;2.50;;
4268;SDS011;2148;48.554;7.834;2023-04-25T11:24:12;2.77;;;2.57;;
4268;SDS011;2148;48.554;7.834;2023-04-25T11:26:38;3.07;;;2.87;;
4268;SDS011;2148;48.554;7.834;2023-04-25T11:29:03;3.30;;;2.90;;
4268;SDS011;2148;48.554;7.834;2023-04-25T11:31:29;3.40;;;3.10;;
4268;SDS011;2148;48.554;7.834;2023-04-25T11:33:56;3.90;;;3.47;;
4268;SDS011;2148;48.554;7.834;2023-04-25T11:36:22;3.50;;;3.20;;
4268;SDS011;2148;48.554;7.834;2023-04-25T11:38:49;3.60;;;3.30;;
4268;SDS011;2148;48.554;7.834;2023-04-25T11:41:15;4.17;;;3.47;;
4268;SDS011;2148;48.554;7.834;2023-04-25T11:43:42;2.90;;;2.70;;
4268;SDS011;2148;48.554;7.834;2023-04-25T11:46:08;2.10;;;1.90;;
4268;SDS011;2148;48.554;7.834;2023-04-25T11:48:37;2.20;;;2.10;;
4268;SDS011;2148;48.554;7.834;2023-04-25T11:51:06;2.17;;;2.03;;
4268;SDS011;2148;48.554;7.834;2023-04-25T11:53:31;2.30;;;2.10;;
4268;SDS011;2148;48.554;7.834;2023-04-25T11:55:57;2.90;;;2.70;;
4268;SDS011;2148;48.554;7.834;2023-04-25T11:58:22;7.53;;;3.13;;
4268;SDS011;2148;48.554;7.834;2023-04-25T12:00:47;3.63;;;3.23;;
4268;SDS011;2148;48.554;7.834;2023-04-25T12:03:13;3.17;;;2.87;;
4268;SDS011;2148;48.554;7.834;2023-04-25T12:05:38;3.03;;;2.80;;
4268;SDS011;2148;48.554;7.834;2023-04-25T12:08:11;3.23;;;2.90;;
4268;SDS011;2148;48.554;7.834;2023-04-25T12:10:37;3.37;;;3.07;;
4268;SDS011;2148;48.554;7.834;2023-04-25T12:13:17;3.33;;;3.00;;
4268;SDS011;2148;48.554;7.834;2023-04-25T12:15:46;3.20;;;2.90;;
4268;SDS011;2148;48.554;7.834;2023-04-25T12:18:11;3.40;;;3.10;;
4268;SDS011;2148;48.554;7.834;2023-04-25T12:20:36;3.40;;;3.10;;
4268;SDS011;2148;48.554;7.834;2023-04-25T12:23:05;3.27;;;2.93;;
4268;SDS011;2148;48.554;7.834;2023-04-25T12:25:40;3.40;;;3.10;;
4268;SDS011;2148;48.554;7.834;2023-04-25T12:31:01;3.80;;;3.50;;
4268;SDS011;2148;48.554;7.834;2023-04-25T12:33:29;3.70;;;3.40;;
4268;SDS011;2148;48.554;7.834;2023-04-25T12:35:58;5.03;;;4.53;;
4268;SDS011;2148;48.554;7.834;2023-04-25T12:38:26;5.20;;;4.67;;
4268;SDS011;2148;48.554;7.834;2023-04-25T12:40:53;5.47;;;4.87;;
4268;SDS011;2148;48.554;7.834;2023-04-25T12:43:18;5.20;;;4.03;;
4268;SDS011;2148;48.554;7.834;2023-04-25T12:45:44;10.17;;;5.47;;
4268;SDS011;2148;48.554;7.834;2023-04-25T12:48:12;5.37;;;4.60;;
4268;SDS011;2148;48.554;7.834;2023-04-25T12:50:37;5.83;;;4.20;;
4268;SDS011;2148;48.554;7.834;2023-04-25T12:53:02;5.00;;;4.27;;
4268;SDS011;2148;48.554;7.834;2023-04-25T12:55:27;4.30;;;3.57;;
4268;SDS011;2148;48.554;7.834;2023-04-25T12:57:53;3.97;;;3.50;;
4268;SDS011;2148;48.554;7.834;2023-04-25T13:00:18;4.63;;;4.20;;
4268;SDS011;2148;48.554;7.834;2023-04-25T13:02:45;4.47;;;4.07;;
4268;SDS011;2148;48.554;7.834;2023-04-25T13:05:11;4.37;;;3.97;;
4268;SDS011;2148;48.554;7.834;2023-04-25T13:07:37;4.13;;;3.73;;
4268;SDS011;2148;48.554;7.834;2023-04-25T13:10:02;3.83;;;3.30;;
4268;SDS011;2148;48.554;7.834;2023-04-25T13:12:28;3.90;;;3.60;;
4268;SDS011;2148;48.554;7.834;2023-04-25T13:14:53;3.80;;;3.50;;
4268;SDS011;2148;48.554;7.834;2023-04-25T13:17:18;3.70;;;3.40;;
4268;SDS011;2148;48.554;7.834;2023-04-25T13:19:44;3.20;;;2.90;;
4268;SDS011;2148;48.554;7.834;2023-04-25T13:22:09;3.17;;;2.87;;
4268;SDS011;2148;48.554;7.834;2023-04-25T13:24:34;2.63;;;2.47;;
4268;SDS011;2148;48.554;7.834;2023-04-25T13:27:00;3.00;;;2.80;;
4268;SDS011;2148;48.554;7.834;2023-04-25T13:29:26;2.80;;;2.60;;
4268;SDS011;2148;48.554;7.834;2023-04-25T13:31:51;3.20;;;3.00;;
4268;SDS011;2148;48.554;7.834;2023-04-25T13:34:16;3.77;;;3.00;;
4268;SDS011;2148;48.554;7.834;2023-04-25T13:36:42;3.43;;;3.00;;
4268;SDS011;2148;48.554;7.834;2023-04-25T13:39:07;2.80;;;2.60;;
4268;SDS011;2148;48.554;7.834;2023-04-25T13:41:32;3.33;;;3.03;;
4268;SDS011;2148;48.554;7.834;2023-04-25T13:43:57;3.10;;;2.80;;
4268;SDS011;2148;48.554;7.834;2023-04-25T13:46:23;3.30;;;3.00;;
4268;SDS011;2148;48.554;7.834;2023-04-25T13:48:48;3.07;;;2.87;;
4268;SDS011;2148;48.554;7.834;2023-04-25T13:51:14;3.40;;;3.10;;
4268;SDS011;2148;48.554;7.834;2023-04-25T13:53:40;3.57;;;3.27;;
4268;SDS011;2148;48.554;7.834;2023-04-25T13:56:06;3.00;;;2.80;;
4268;SDS011;2148;48.554;7.834;2023-04-25T13:58:31;3.60;;;3.30;;
4268;SDS011;2148;48.554;7.834;2023-04-25T14:00:57;3.20;;;2.90;;
4268;SDS011;2148;48.554;7.834;2023-04-25T14:03:23;4.40;;;2.80;;
4268;SDS011;2148;48.554;7.834;2023-04-25T14:05:48;3.50;;;3.20;;
4268;SDS011;2148;48.554;7.834;2023-04-25T14:08:13;3.53;;;3.23;;
4268;SDS011;2148;48.554;7.834;2023-04-25T14:10:38;3.33;;;3.03;;
4268;SDS011;2148;48.554;7.834;2023-04-25T14:13:04;3.70;;;3.30;;
4268;SDS011;2148;48.554;7.834;2023-04-25T14:15:32;3.37;;;3.07;;
4268;SDS011;2148;48.554;7.834;2023-04-25T14:17:58;3.37;;;2.97;;
4268;SDS011;2148;48.554;7.834;2023-04-25T14:20:24;3.63;;;3.33;;
4268;SDS011;2148;48.554;7.834;2023-04-25T14:22:49;3.23;;;2.93;;
4268;SDS011;2148;48.554;7.834;2023-04-25T14:25:15;3.00;;;2.70;;
4268;SDS011;2148;48.554;7.834;2023-04-25T14:27:40;3.43;;;2.90;;
4268;SDS011;2148;48.554;7.834;2023-04-25T14:30:06;2.77;;;2.57;;
4268;SDS011;2148;48.554;7.834;2023-04-25T14:32:33;2.20;;;2.10;;
4268;SDS011;2148;48.554;7.834;2023-04-25T14:34:58;2.50;;;2.30;;
4268;SDS011;2148;48.554;7.834;2023-04-25T14:37:23;2.67;;;2.47;;
4268;SDS011;2148;48.554;7.834;2023-04-25T14:39:49;2.80;;;2.60;;
4268;SDS011;2148;48.554;7.834;2023-04-25T14:42:14;2.63;;;2.43;;
4268;SDS011;2148;48.554;7.834;2023-04-25T14:44:39;3.00;;;2.70;;
4268;SDS011;2148;48.554;7.834;2023-04-25T14:47:05;3.00;;;2.70;;
4268;SDS011;2148;48.554;7.834;2023-04-25T14:49:31;2.80;;;2.60;;
4268;SDS011;2148;48.554;7.834;2023-04-25T14:51:56;2.37;;;2.17;;
4268;SDS011;2148;48.554;7.834;2023-04-25T14:54:21;2.67;;;2.47;;
4268;SDS011;2148;48.554;7.834;2023-04-25T14:56:48;2.77;;;2.57;;
4268;SDS011;2148;48.554;7.834;2023-04-25T14:59:13;2.70;;;2.50;;
4268;SDS011;2148;48.554;7.834;2023-04-25T15:01:38;2.80;;;2.60;;
4268;SDS011;2148;48.554;7.834;2023-04-25T15:04:04;2.87;;;2.67;;
4268;SDS011;2148;48.554;7.834;2023-04-25T15:06:29;2.70;;;2.50;;
4268;SDS011;2148;48.554;7.834;2023-04-25T15:08:55;2.83;;;2.63;;
4268;SDS011;2148;48.554;7.834;2023-04-25T15:11:21;3.30;;;3.00;;
4268;SDS011;2148;48.554;7.834;2023-04-25T15:13:47;3.13;;;2.93;;
4268;SDS011;2148;48.554;7.834;2023-04-25T15:16:12;2.90;;;2.70;;
4268;SDS011;2148;48.554;7.834;2023-04-25T15:18:37;3.13;;;2.93;;
4268;SDS011;2148;48.554;7.834;2023-04-25T15:21:02;2.90;;;2.70;;
4268;SDS011;2148;48.554;7.834;2023-04-25T15:23:29;3.43;;;3.13;;
4268;SDS011;2148;48.554;7.834;2023-04-25T15:25:55;3.30;;;3.10;;